ADDS METAR Data INFO
IDs: Format: Raw Decoded Include TAF

Data at: 2041 UTC 20 Jul 2018

KDIJ 201956Z AUTO VRB03KT 10SM CLR 28/03 A3022 RMK AO2 SLP156 T02830028
KDIJ 201856Z AUTO 15008KT 10SM CLR 28/02 A3022 RMK AO2 SLP158 T02830017
KDIJ 201756Z AUTO 21006KT 10SM CLR 27/00 A3023 RMK AO2 SLP161 T02720000 10272 20094 55000
KDIJ 201656Z AUTO 00000KT 8SM CLR 26/M02 A3023 RMK AO2 SLP162 T02561017
KDIJ 201556Z AUTO VRB03KT 10SM CLR 24/01 A3023 RMK AO2 SLP165 T02390011
KDIJ 201456Z AUTO 00000KT 10SM CLR 22/03 A3023 RMK AO2 SLP166 T02170033 51009
KDIJ 201356Z AUTO 00000KT 10SM CLR 18/02 A3023 RMK AO2 SLP160 T01780017
KDIJ 201256Z AUTO 06003KT 10SM CLR 12/01 A3021 RMK AO2 SLP162 T01220011
KDIJ 201156Z AUTO 00000KT 10SM CLR 12/M01 A3020 RMK AO2 SLP157 T01171006 10167 20117 51005
KDIJ 201056Z AUTO 12006KT 10SM CLR 15/M03 A3019 RMK AO2 SLP147 T01501028
KDIJ 200956Z AUTO 16004KT 10SM CLR 14/M01 A3019 RMK AO2 SLP149 T01391011
KDIJ 200856Z AUTO 15004KT 10SM CLR 16/M02 A3018 RMK AO2 SLP144 T01561022 55000
KDIJ 200756Z AUTO 16010KT 10SM CLR 15/M02 A3017 RMK AO2 SLP144 T01501017
KDIJ 200656Z AUTO 15010KT 10SM CLR 15/M01 A3018 RMK AO2 SLP146 T01501011 402890094
KDIJ 200556Z AUTO 15007KT 10SM CLR 16/M01 A3018 RMK AO2 SLP148 T01561006 10278 20150 50002
KDIJ 200456Z AUTO 18007KT 110V220 10SM CLR 17/00 A3019 RMK AO2 SLP150 T01670000
KDIJ 200356Z AUTO 11008KT 10SM CLR 17/01 A3018 RMK AO2 SLP151 T01720011
KDIJ 200256Z AUTO 14008KT 10SM CLR 19/06 A3017 RMK AO2 SLP148 T01890056 55009
KDIJ 200156Z AUTO 18005KT 10SM CLR 25/01 A3017 RMK AO2 SLP145 T02500006
KDIJ 200056Z AUTO 19005KT 10SM CLR 27/M03 A3018 RMK AO2 SLP151 T02721028
KDIJ 192356Z AUTO 24012KT 10SM CLR 28/M04 A3021 RMK AO2 SLP160 T02781039 10289 20256 56011
KDIJ 192256Z AUTO 27010KT 10SM CLR 28/M02 A3022 RMK AO2 SLP160 T02831022
KDIJ 192156Z AUTO 34005KT 10SM CLR 28/03 A3023 RMK AO2 SLP161 T02830028
KDIJ 192056Z AUTO 21004KT 10SM CLR 27/01 A3025 RMK AO2 SLP169 T02720006 58006
KDIJ 191956Z AUTO 00000KT 10SM CLR 27/05 A3026 RMK AO2 SLP171 T02670050
KDIJ 191856Z AUTO 28006KT 10SM CLR 27/05 A3027 RMK AO2 SLP170 T02720050
KDIJ 191756Z AUTO VRB04KT 10SM CLR 26/04 A3027 RMK AO2 SLP178 T02560039 10261 20106 53002
KDIJ 191656Z AUTO 23006KT 10SM CLR 24/06 A3027 RMK AO2 SLP179 T02440061
KDIJ 191556Z AUTO 19005KT 10SM CLR 23/06 A3026 RMK AO2 SLP178 T02280056
KDIJ 191456Z AUTO 00000KT 10SM CLR 21/05 A3026 RMK AO2 SLP175 T02110050 51008
KDIJ 191356Z AUTO 15003KT 10SM CLR 16/05 A3026 RMK AO2 SLP178 T01560050
KDIJ 191256Z AUTO 00000KT 10SM CLR 12/04 A3025 RMK AO2 SLP176 T01220044
KDIJ 191156Z AUTO 13005KT 10SM CLR 12/03 A3023 RMK AO2 SLP167 T01170033 10183 20094 53010
KDIJ 191056Z AUTO 20003KT 10SM CLR 13/03 A3021 RMK AO2 SLP154 T01330028
KDIJ 190956Z AUTO 15008KT 10SM CLR 15/03 A3021 RMK AO2 SLP152 T01500028
KDIJ 190856Z AUTO 15008KT 10SM CLR 15/03 A3020 RMK AO2 SLP150 T01500028 53001